createdAt,value
2022-11-30T00:00:48.584Z,0.00
2022-11-30T00:01:48.653Z,0.00
2022-11-30T00:02:48.694Z,0.00
2022-11-30T00:03:48.555Z,0.00
2022-11-30T00:04:48.732Z,0.00
2022-11-30T00:05:48.535Z,0.00
2022-11-30T00:06:48.555Z,0.00
2022-11-30T00:07:48.561Z,0.00
2022-11-30T00:08:48.502Z,0.00
2022-11-30T00:09:48.543Z,0.00
2022-11-30T00:10:48.480Z,0.00
2022-11-30T00:11:48.476Z,0.00
2022-11-30T00:12:48.463Z,0.00
2022-11-30T00:13:48.451Z,0.00
2022-11-30T00:14:48.638Z,0.00
2022-11-30T00:15:48.428Z,0.00
2022-11-30T00:16:48.512Z,0.00
2022-11-30T00:17:48.407Z,0.00
2022-11-30T00:18:48.424Z,0.00
2022-11-30T00:19:48.400Z,0.00
2022-11-30T00:20:48.378Z,0.00
2022-11-30T00:21:48.364Z,0.00
2022-11-30T00:22:48.350Z,0.00
2022-11-30T00:23:48.346Z,0.00
2022-11-30T00:24:48.703Z,0.00
2022-11-30T00:25:48.325Z,0.00
2022-11-30T00:26:48.341Z,0.00
2022-11-30T00:27:48.299Z,0.00
2022-11-30T00:28:48.287Z,0.00
2022-11-30T00:29:48.294Z,0.00
2022-11-30T00:30:48.313Z,0.00
2022-11-30T00:31:48.256Z,0.00
2022-11-30T00:32:48.254Z,0.00
2022-11-30T00:33:48.239Z,0.00
2022-11-30T00:34:48.518Z,0.00
2022-11-30T00:35:48.214Z,0.00
2022-11-30T00:36:48.201Z,0.00
2022-11-30T00:37:48.195Z,0.00
2022-11-30T00:38:48.182Z,0.00
2022-11-30T00:39:48.185Z,0.00
2022-11-30T00:40:48.171Z,0.00
2022-11-30T00:41:48.148Z,0.00
2022-11-30T00:42:48.146Z,0.00
2022-11-30T00:43:48.128Z,0.00
2022-11-30T00:44:48.376Z,0.00
2022-11-30T00:45:48.155Z,0.00
2022-11-30T00:46:48.098Z,0.00
2022-11-30T00:47:48.085Z,0.00
2022-11-30T00:48:48.075Z,0.00
2022-11-30T00:49:48.066Z,0.00
2022-11-30T00:50:48.087Z,0.00
2022-11-30T00:51:48.045Z,0.00
2022-11-30T00:52:48.032Z,0.00
2022-11-30T00:53:48.030Z,0.00
2022-11-30T00:54:48.219Z,0.00
2022-11-30T00:55:48.019Z,0.00
2022-11-30T00:56:47.988Z,0.00
2022-11-30T00:57:47.979Z,0.00
2022-11-30T00:58:47.969Z,0.00
2022-11-30T00:59:47.974Z,0.00
2022-11-30T01:00:47.955Z,0.00
2022-11-30T01:01:47.974Z,0.00
2022-11-30T01:02:48.033Z,0.00
2022-11-30T01:03:47.921Z,0.00
2022-11-30T01:04:48.159Z,0.00
2022-11-30T01:05:47.922Z,0.00
2022-11-30T01:06:47.903Z,0.00
2022-11-30T01:07:47.952Z,0.00
2022-11-30T01:08:47.862Z,0.00
2022-11-30T01:09:47.853Z,0.00
2022-11-30T01:10:47.851Z,0.00
2022-11-30T01:11:47.833Z,0.00
2022-11-30T01:12:47.819Z,0.00
2022-11-30T01:13:47.815Z,0.00
2022-11-30T01:14:48.148Z,0.00
2022-11-30T01:15:47.855Z,0.00
2022-11-30T01:16:50.855Z,0.00
2022-11-30T01:17:48.767Z,0.00
2022-11-30T01:18:47.760Z,0.00
2022-11-30T01:19:47.748Z,0.00
2022-11-30T01:20:47.749Z,0.00
2022-11-30T01:21:47.726Z,0.00
2022-11-30T01:22:47.730Z,0.00
2022-11-30T01:23:47.710Z,0.00
2022-11-30T01:24:48.041Z,0.00
2022-11-30T01:25:47.696Z,0.00
2022-11-30T01:26:47.673Z,0.00
2022-11-30T01:27:47.663Z,0.00
2022-11-30T01:28:47.649Z,0.00
2022-11-30T01:29:47.649Z,0.00
2022-11-30T01:30:47.670Z,0.00
2022-11-30T01:31:47.620Z,0.00
2022-11-30T01:32:47.606Z,0.00
2022-11-30T01:33:47.596Z,0.00
2022-11-30T01:34:47.903Z,0.00
2022-11-30T01:35:47.587Z,0.00
2022-11-30T01:36:47.565Z,0.00
2022-11-30T01:37:47.554Z,0.00
2022-11-30T01:38:47.568Z,0.00
2022-11-30T01:39:47.539Z,0.00
2022-11-30T01:40:47.540Z,0.00
2022-11-30T01:41:47.513Z,0.00
2022-11-30T01:42:47.501Z,0.00
2022-11-30T01:43:47.498Z,0.00
2022-11-30T01:44:47.913Z,0.00
2022-11-30T01:45:47.563Z,0.00
2022-11-30T01:46:47.461Z,0.00
2022-11-30T01:47:47.449Z,0.00
2022-11-30T01:48:47.437Z,0.00
2022-11-30T01:49:47.431Z,0.00
2022-11-30T01:50:47.425Z,0.00
2022-11-30T01:51:47.405Z,0.00
2022-11-30T01:52:47.396Z,0.00
2022-11-30T01:53:47.387Z,0.00
2022-11-30T01:54:47.651Z,0.00
2022-11-30T01:55:47.380Z,0.00
2022-11-30T01:56:47.352Z,0.00
2022-11-30T01:57:47.339Z,0.00
2022-11-30T01:58:47.332Z,0.00
2022-11-30T01:59:47.320Z,0.00
2022-11-30T02:00:47.322Z,0.00
2022-11-30T02:01:47.390Z,0.00
2022-11-30T02:02:47.304Z,0.00
2022-11-30T02:03:47.282Z,0.00
2022-11-30T02:04:47.458Z,0.00
2022-11-30T02:05:47.271Z,0.00
2022-11-30T02:06:47.271Z,0.00
2022-11-30T02:07:47.327Z,0.00
2022-11-30T02:08:47.232Z,0.00
2022-11-30T02:09:47.218Z,0.00
2022-11-30T02:10:47.239Z,0.00
2022-11-30T02:11:47.192Z,0.00
2022-11-30T02:12:47.187Z,0.00
2022-11-30T02:13:47.177Z,0.00
2022-11-30T02:14:47.363Z,0.00
2022-11-30T02:15:47.191Z,0.00
2022-11-30T02:16:47.147Z,0.00
2022-11-30T02:17:47.138Z,0.00
2022-11-30T02:18:47.120Z,0.00
2022-11-30T02:19:47.105Z,0.00
2022-11-30T02:20:47.114Z,0.00
2022-11-30T02:21:47.089Z,0.00
2022-11-30T02:22:47.075Z,0.00
2022-11-30T02:23:47.070Z,0.00
2022-11-30T02:24:47.365Z,0.00
2022-11-30T02:25:47.054Z,0.00
2022-11-30T02:26:47.052Z,0.00
2022-11-30T02:27:47.037Z,0.00
2022-11-30T02:28:47.014Z,0.00
2022-11-30T02:29:47.002Z,0.00
2022-11-30T02:30:47.034Z,0.00
2022-11-30T02:31:46.980Z,0.00
2022-11-30T02:32:46.976Z,0.00
2022-11-30T02:33:46.961Z,0.00
2022-11-30T02:34:47.343Z,0.00
2022-11-30T02:35:51.558Z,0.00
2022-11-30T02:36:47.926Z,0.00
2022-11-30T02:37:46.917Z,0.00
2022-11-30T02:38:46.906Z,0.00
2022-11-30T02:39:46.906Z,0.00
2022-11-30T02:40:46.897Z,0.00
2022-11-30T02:41:46.870Z,0.00
2022-11-30T02:42:46.890Z,0.00
2022-11-30T02:43:46.852Z,0.00
2022-11-30T02:44:47.124Z,0.00
2022-11-30T02:45:46.841Z,0.00
2022-11-30T02:46:46.820Z,0.00
2022-11-30T02:47:46.812Z,0.00
2022-11-30T02:48:46.804Z,0.00
2022-11-30T02:49:46.785Z,0.00
2022-11-30T02:50:46.788Z,0.00
2022-11-30T02:51:46.775Z,0.00
2022-11-30T02:52:46.754Z,0.00
2022-11-30T02:53:46.750Z,0.00
2022-11-30T02:54:46.981Z,0.00
2022-11-30T02:55:46.732Z,0.00
2022-11-30T02:56:46.720Z,0.00
2022-11-30T02:57:46.705Z,0.00
2022-11-30T02:58:46.710Z,0.00
2022-11-30T02:59:46.680Z,0.00
2022-11-30T03:00:46.682Z,0.00
2022-11-30T03:01:46.707Z,0.00
2022-11-30T03:02:46.709Z,0.00
2022-11-30T03:03:46.638Z,0.00
2022-11-30T03:04:46.800Z,0.00
2022-11-30T03:05:46.632Z,0.00
2022-11-30T03:06:46.604Z,0.00
2022-11-30T03:07:46.696Z,0.00
2022-11-30T03:08:46.588Z,0.00
2022-11-30T03:09:46.578Z,0.00
2022-11-30T03:10:46.581Z,0.00
2022-11-30T03:11:46.553Z,0.00
2022-11-30T03:12:46.549Z,0.00
2022-11-30T03:13:46.531Z,0.00
2022-11-30T03:14:46.881Z,0.00
2022-11-30T03:15:46.582Z,0.00
2022-11-30T03:16:46.499Z,0.00
2022-11-30T03:17:46.489Z,0.00
2022-11-30T03:18:46.481Z,0.00
2022-11-30T03:19:46.469Z,0.00
2022-11-30T03:20:46.468Z,0.00
2022-11-30T03:21:46.451Z,0.00
2022-11-30T03:22:46.435Z,0.00
2022-11-30T03:23:46.425Z,0.00
2022-11-30T03:24:46.660Z,0.00
2022-11-30T03:25:46.418Z,0.00
2022-11-30T03:26:46.392Z,0.00
2022-11-30T03:27:46.386Z,0.00
2022-11-30T03:28:46.373Z,0.00
2022-11-30T03:29:46.364Z,0.00
2022-11-30T03:30:46.451Z,0.00
2022-11-30T03:31:46.336Z,0.00
2022-11-30T03:32:46.332Z,0.00
2022-11-30T03:33:46.318Z,0.00
2022-11-30T03:34:46.589Z,0.00
2022-11-30T03:35:46.312Z,0.00
2022-11-30T03:36:46.290Z,0.00
2022-11-30T03:37:46.275Z,0.00
2022-11-30T03:38:46.268Z,0.00
2022-11-30T03:39:46.253Z,0.00
2022-11-30T03:40:46.256Z,0.00
2022-11-30T03:41:46.236Z,0.00
2022-11-30T03:42:46.230Z,0.00
2022-11-30T03:43:46.210Z,0.00
2022-11-30T03:44:46.361Z,0.00
2022-11-30T03:45:46.203Z,0.00
2022-11-30T03:46:46.282Z,0.00
2022-11-30T03:47:46.169Z,0.00
2022-11-30T03:48:46.157Z,0.00
2022-11-30T03:49:46.148Z,0.00
2022-11-30T03:50:46.177Z,0.00
2022-11-30T03:51:46.127Z,0.00
2022-11-30T03:52:46.116Z,0.00
2022-11-30T03:53:46.104Z,0.00
2022-11-30T03:54:46.387Z,0.00
2022-11-30T03:55:46.103Z,0.00
2022-11-30T03:56:46.075Z,0.00
2022-11-30T03:57:46.060Z,0.00
2022-11-30T03:58:46.053Z,0.00
2022-11-30T03:59:46.042Z,0.00
2022-11-30T04:00:46.043Z,0.00
2022-11-30T04:01:46.066Z,0.00
2022-11-30T04:02:46.060Z,0.00
2022-11-30T04:03:46.007Z,0.00
2022-11-30T04:04:46.237Z,0.00
2022-11-30T04:05:45.990Z,0.00
2022-11-30T04:06:45.967Z,0.00
2022-11-30T04:07:46.056Z,0.00
2022-11-30T04:08:45.945Z,0.00
2022-11-30T04:09:45.932Z,0.00
2022-11-30T04:10:45.937Z,0.00
2022-11-30T04:11:45.913Z,0.00
2022-11-30T04:12:45.903Z,0.00
2022-11-30T04:13:45.891Z,0.00
2022-11-30T04:14:46.139Z,0.00
2022-11-30T04:15:45.954Z,0.00
2022-11-30T04:16:45.859Z,0.00
2022-11-30T04:17:45.851Z,0.00
2022-11-30T04:18:45.864Z,0.00
2022-11-30T04:19:45.828Z,0.00
2022-11-30T04:20:45.832Z,0.00
2022-11-30T04:21:45.806Z,0.00
2022-11-30T04:22:45.799Z,0.00
2022-11-30T04:23:45.785Z,0.00
2022-11-30T04:24:46.112Z,0.00
2022-11-30T04:25:45.781Z,0.00
2022-11-30T04:26:45.753Z,0.00
2022-11-30T04:27:45.749Z,0.00
2022-11-30T04:28:45.736Z,0.00
2022-11-30T04:29:45.722Z,0.00
2022-11-30T04:30:45.734Z,0.00
2022-11-30T04:31:45.740Z,0.00
2022-11-30T04:32:45.691Z,0.00
2022-11-30T04:33:45.704Z,0.00
2022-11-30T04:34:45.958Z,0.00
2022-11-30T04:35:45.670Z,0.00
2022-11-30T04:36:45.649Z,0.00
2022-11-30T04:37:45.635Z,0.00
2022-11-30T04:38:45.628Z,0.00
2022-11-30T04:39:45.614Z,0.00
2022-11-30T04:40:45.620Z,0.00
2022-11-30T04:41:45.591Z,0.00
2022-11-30T04:42:45.587Z,0.00
2022-11-30T04:43:45.575Z,0.00
2022-11-30T04:44:45.886Z,0.00
2022-11-30T04:45:45.560Z,0.00
2022-11-30T04:46:45.622Z,0.00
2022-11-30T04:47:45.527Z,0.00
2022-11-30T04:48:45.525Z,0.00
2022-11-30T04:49:45.516Z,0.00
2022-11-30T04:50:45.538Z,0.00
2022-11-30T04:51:45.490Z,0.00
2022-11-30T04:52:45.473Z,0.00
2022-11-30T04:53:45.463Z,0.00
2022-11-30T04:54:45.968Z,0.00
2022-11-30T04:55:45.453Z,0.00
2022-11-30T04:56:45.432Z,0.00
2022-11-30T04:57:45.427Z,0.00
2022-11-30T04:58:45.415Z,0.00
2022-11-30T04:59:45.400Z,0.00
2022-11-30T05:00:45.437Z,0.00
2022-11-30T05:01:45.442Z,0.00
2022-11-30T05:02:52.169Z,0.00
2022-11-30T05:03:46.357Z,0.00
2022-11-30T05:04:45.752Z,0.00
2022-11-30T05:05:45.345Z,0.00
2022-11-30T05:06:45.349Z,0.00
2022-11-30T05:07:45.368Z,0.00
2022-11-30T05:08:45.309Z,0.00
2022-11-30T05:09:45.299Z,0.00
2022-11-30T05:10:50.192Z,0.00
2022-11-30T05:11:46.280Z,0.00
2022-11-30T05:12:45.267Z,0.00
2022-11-30T05:13:45.251Z,0.00
2022-11-30T05:14:45.769Z,0.00
2022-11-30T05:15:45.327Z,0.00
2022-11-30T05:16:45.217Z,0.00
2022-11-30T05:17:45.208Z,0.00
2022-11-30T05:18:45.202Z,0.00
2022-11-30T05:19:45.185Z,0.00
2022-11-30T05:20:45.201Z,0.00
2022-11-30T05:21:45.875Z,0.00
2022-11-30T05:22:45.171Z,0.00
2022-11-30T05:23:45.145Z,0.00
2022-11-30T05:24:45.347Z,0.00
2022-11-30T05:25:45.144Z,0.00
2022-11-30T05:26:45.120Z,0.00
2022-11-30T05:27:45.102Z,0.00
2022-11-30T05:28:45.093Z,0.00
2022-11-30T05:29:45.079Z,0.00
2022-11-30T05:30:45.080Z,0.00
2022-11-30T05:31:45.080Z,0.00
2022-11-30T05:32:45.053Z,0.00
2022-11-30T05:33:45.037Z,0.00
2022-11-30T05:34:51.012Z,0.00
2022-11-30T05:35:46.028Z,0.00
2022-11-30T05:36:45.010Z,0.00
2022-11-30T05:37:44.992Z,0.00
2022-11-30T05:38:45.006Z,0.00
2022-11-30T05:39:44.972Z,0.00
2022-11-30T05:40:44.972Z,0.00
2022-11-30T05:41:44.957Z,0.00
2022-11-30T05:42:52.845Z,0.00
2022-11-30T05:43:44.924Z,0.00
2022-11-30T05:44:45.317Z,0.00
2022-11-30T05:45:44.912Z,0.00
2022-11-30T05:46:44.932Z,0.00
2022-11-30T05:47:44.881Z,0.00
2022-11-30T05:48:44.878Z,0.00
2022-11-30T05:49:44.860Z,0.00
2022-11-30T05:50:44.860Z,0.00
2022-11-30T05:51:44.838Z,0.00
2022-11-30T05:52:44.844Z,0.00
2022-11-30T05:53:44.818Z,0.00
2022-11-30T05:54:45.008Z,0.00
2022-11-30T05:55:44.804Z,0.00
2022-11-30T05:56:44.786Z,0.00
2022-11-30T05:57:44.776Z,0.00
2022-11-30T05:58:44.764Z,0.00
2022-11-30T05:59:44.756Z,0.00
2022-11-30T06:00:44.753Z,0.00
2022-11-30T06:01:44.855Z,0.00
2022-11-30T06:02:44.878Z,0.00
2022-11-30T06:03:44.732Z,0.00
2022-11-30T06:04:44.828Z,0.00
2022-11-30T06:05:44.717Z,0.00
2022-11-30T06:06:44.680Z,0.00
2022-11-30T06:07:44.744Z,0.00
2022-11-30T06:08:44.659Z,0.00
2022-11-30T06:09:44.656Z,0.00
2022-11-30T06:10:44.651Z,0.00
2022-11-30T06:11:44.634Z,0.00
2022-11-30T06:12:44.613Z,0.00
2022-11-30T06:13:44.606Z,0.00
2022-11-30T06:14:44.851Z,0.00
2022-11-30T06:15:44.584Z,0.00
2022-11-30T06:16:44.671Z,0.00
2022-11-30T06:17:44.562Z,0.00
2022-11-30T06:18:44.549Z,0.00
2022-11-30T06:19:44.542Z,0.00
2022-11-30T06:20:44.529Z,0.00
2022-11-30T06:21:44.527Z,0.00
2022-11-30T06:22:44.523Z,0.00
2022-11-30T06:23:44.563Z,0.00
2022-11-30T06:24:44.522Z,0.00
2022-11-30T06:25:44.475Z,0.00
2022-11-30T06:26:44.555Z,0.00
2022-11-30T06:27:44.458Z,0.00
2022-11-30T06:28:48.227Z,0.00
2022-11-30T06:29:44.433Z,0.00
2022-11-30T06:30:44.426Z,0.00
2022-11-30T06:31:44.449Z,0.00
2022-11-30T06:32:44.398Z,0.00
2022-11-30T06:33:44.388Z,0.00
2022-11-30T06:34:44.598Z,0.00
2022-11-30T06:35:44.370Z,0.00
2022-11-30T06:36:44.373Z,0.00
2022-11-30T06:37:44.346Z,0.00
2022-11-30T06:38:44.336Z,0.00
2022-11-30T06:40:05.401Z,0.00
2022-11-30T06:40:45.316Z,0.00
2022-11-30T06:41:44.323Z,0.00
2022-11-30T06:42:44.312Z,0.00
2022-11-30T06:43:44.283Z,0.00
2022-11-30T06:44:44.509Z,0.00
2022-11-30T06:45:44.273Z,0.00
2022-11-30T06:46:44.262Z,0.00
2022-11-30T06:47:44.243Z,0.00
2022-11-30T06:48:44.226Z,0.00
2022-11-30T06:49:44.218Z,0.00
2022-11-30T06:50:49.736Z,0.00
2022-11-30T06:51:45.225Z,0.00
2022-11-30T06:52:44.185Z,0.00
2022-11-30T06:53:44.175Z,0.00
2022-11-30T06:54:44.312Z,0.00
2022-11-30T06:55:44.155Z,0.00
2022-11-30T06:56:44.167Z,0.00
2022-11-30T06:57:44.133Z,0.00
2022-11-30T06:58:44.144Z,0.00
2022-11-30T06:59:44.133Z,0.00
2022-11-30T07:00:44.194Z,0.00
2022-11-30T07:01:44.109Z,0.00
2022-11-30T07:02:44.080Z,0.00
2022-11-30T07:03:44.117Z,0.00
2022-11-30T07:04:44.064Z,0.00
2022-11-30T07:05:44.049Z,0.00
2022-11-30T07:06:44.042Z,0.00
2022-11-30T07:07:44.072Z,0.00
2022-11-30T07:08:44.017Z,0.00
2022-11-30T07:09:44.013Z,0.00
2022-11-30T07:10:43.993Z,0.00
2022-11-30T07:11:43.993Z,0.00
2022-11-30T07:12:43.980Z,0.00
2022-11-30T07:13:44.039Z,0.00
2022-11-30T07:14:43.971Z,5.62
2022-11-30T07:15:43.940Z,5.62
2022-11-30T07:16:43.976Z,5.62
2022-11-30T07:17:43.920Z,5.62
2022-11-30T07:18:43.907Z,5.62
2022-11-30T07:19:43.899Z,5.62
2022-11-30T07:20:43.886Z,5.62
2022-11-30T07:21:43.887Z,5.62
2022-11-30T07:22:43.867Z,5.62
2022-11-30T07:23:43.854Z,5.62
2022-11-30T07:24:43.849Z,5.62
2022-11-30T07:25:43.848Z,5.62
2022-11-30T07:26:43.868Z,5.62
2022-11-30T07:27:43.814Z,5.62
2022-11-30T07:28:43.801Z,5.62
2022-11-30T07:29:43.790Z,5.62
2022-11-30T07:30:43.799Z,5.62
2022-11-30T07:31:43.869Z,5.62
2022-11-30T07:32:43.760Z,5.62
2022-11-30T07:33:43.749Z,5.62
2022-11-30T07:34:43.739Z,5.62
2022-11-30T07:35:43.726Z,5.62
2022-11-30T07:36:43.723Z,5.62
2022-11-30T07:37:43.705Z,5.62
2022-11-30T07:38:43.744Z,11.25
2022-11-30T07:39:43.687Z,11.25
2022-11-30T07:40:43.677Z,11.25
2022-11-30T07:41:43.691Z,11.25
2022-11-30T07:42:43.659Z,11.25
2022-11-30T07:43:43.647Z,11.25
2022-11-30T07:44:43.638Z,11.25
2022-11-30T07:45:43.662Z,11.25
2022-11-30T07:46:43.643Z,11.25
2022-11-30T07:47:43.644Z,11.25
2022-11-30T07:48:43.586Z,11.25
2022-11-30T07:49:43.677Z,11.25
2022-11-30T07:50:43.585Z,11.25
2022-11-30T07:51:43.564Z,11.25
2022-11-30T07:52:43.544Z,11.25
2022-11-30T07:53:43.557Z,16.88
2022-11-30T07:54:43.524Z,16.88
2022-11-30T07:55:43.513Z,16.88
2022-11-30T07:56:43.514Z,16.88
2022-11-30T07:57:43.492Z,16.88
2022-11-30T07:58:43.491Z,16.88
2022-11-30T07:59:43.472Z,16.88
2022-11-30T08:00:43.528Z,16.88
2022-11-30T08:01:43.532Z,22.50
2022-11-30T08:02:43.467Z,22.50
2022-11-30T08:03:43.440Z,22.50
2022-11-30T08:04:43.440Z,22.50
2022-11-30T08:05:43.413Z,22.50
2022-11-30T08:06:43.406Z,22.50
2022-11-30T08:07:43.458Z,22.50
2022-11-30T08:08:43.372Z,28.12
2022-11-30T08:09:43.368Z,28.12
2022-11-30T08:10:43.357Z,28.12
2022-11-30T08:11:43.355Z,28.12
2022-11-30T08:12:43.334Z,28.12
2022-11-30T08:13:43.322Z,28.12
2022-11-30T08:15:17.628Z,28.12
2022-11-30T08:15:44.301Z,28.12
2022-11-30T08:16:43.446Z,28.12
2022-11-30T08:17:43.281Z,28.12
2022-11-30T08:18:43.289Z,28.12
2022-11-30T08:19:43.257Z,33.75
2022-11-30T08:20:48.435Z,33.75
2022-11-30T08:21:44.246Z,33.75
2022-11-30T08:22:43.223Z,33.75
2022-11-30T08:23:43.314Z,33.75
2022-11-30T08:24:43.204Z,33.75
2022-11-30T08:25:43.194Z,33.75
2022-11-30T08:26:43.191Z,33.75
2022-11-30T08:27:43.197Z,33.75
2022-11-30T08:28:43.215Z,33.75
2022-11-30T08:29:43.153Z,33.75
2022-11-30T08:30:43.223Z,33.75
2022-11-30T08:31:43.140Z,33.75
2022-11-30T08:32:43.119Z,33.75
2022-11-30T08:33:43.107Z,33.75
2022-11-30T08:34:43.124Z,33.75
2022-11-30T08:35:43.089Z,33.75
2022-11-30T08:36:47.090Z,33.75
2022-11-30T08:37:44.064Z,33.75
2022-11-30T08:38:43.208Z,33.75
2022-11-30T08:39:43.045Z,33.75
2022-11-30T08:40:43.032Z,33.75
2022-11-30T08:41:43.386Z,39.38
2022-11-30T08:42:43.011Z,39.38
2022-11-30T08:43:43.002Z,39.38
2022-11-30T08:44:42.992Z,39.38
2022-11-30T08:45:43.049Z,39.38
2022-11-30T08:46:51.877Z,39.38
2022-11-30T08:47:43.960Z,39.38
2022-11-30T08:48:43.087Z,39.38
2022-11-30T08:49:42.942Z,39.38
2022-11-30T08:50:42.944Z,39.38
2022-11-30T08:52:15.388Z,39.38
2022-11-30T08:52:43.905Z,39.38
2022-11-30T08:53:42.894Z,39.38
2022-11-30T08:54:43.029Z,39.38
2022-11-30T08:55:42.873Z,39.38
2022-11-30T08:56:42.870Z,39.38
2022-11-30T08:57:42.851Z,39.38
2022-11-30T08:58:42.859Z,39.38
2022-11-30T08:59:42.832Z,45.00
2022-11-30T09:00:42.818Z,45.00
2022-11-30T09:01:42.815Z,45.00
2022-11-30T09:02:42.842Z,45.00
2022-11-30T09:03:42.792Z,50.62
2022-11-30T09:04:42.797Z,50.62
2022-11-30T09:05:42.798Z,50.62
2022-11-30T09:06:42.785Z,56.25
2022-11-30T09:07:42.787Z,56.25
2022-11-30T09:08:42.737Z,56.25
2022-11-30T09:09:42.725Z,61.88
2022-11-30T09:10:42.715Z,61.88
2022-11-30T09:11:42.713Z,67.50
2022-11-30T09:12:42.716Z,67.50
2022-11-30T09:13:42.697Z,67.50
2022-11-30T09:14:42.669Z,73.12
2022-11-30T09:15:42.779Z,73.12
2022-11-30T09:16:42.687Z,78.75
2022-11-30T09:17:42.642Z,78.75
2022-11-30T09:18:42.649Z,78.75
2022-11-30T09:19:42.620Z,78.75
2022-11-30T09:20:42.605Z,78.75
2022-11-30T09:21:46.658Z,78.75
2022-11-30T09:22:43.603Z,78.75
2022-11-30T09:23:42.575Z,78.75
2022-11-30T09:24:42.563Z,78.75
2022-11-30T09:25:42.562Z,78.75
2022-11-30T09:26:42.595Z,78.75
2022-11-30T09:27:42.533Z,84.38
2022-11-30T09:28:42.520Z,84.38
2022-11-30T09:29:42.558Z,84.38
2022-11-30T09:30:42.565Z,84.38
2022-11-30T09:31:42.508Z,84.38
2022-11-30T09:32:42.478Z,84.38
2022-11-30T09:33:42.471Z,84.38
2022-11-30T09:34:42.474Z,84.38
2022-11-30T09:35:42.449Z,84.38
2022-11-30T09:36:42.449Z,84.38
2022-11-30T09:37:42.427Z,90.00
2022-11-30T09:38:42.459Z,90.00
2022-11-30T09:39:42.407Z,95.62
2022-11-30T09:40:42.394Z,95.62
2022-11-30T09:41:42.397Z,95.62
2022-11-30T09:42:42.373Z,101.25
2022-11-30T09:43:42.362Z,101.25
2022-11-30T09:44:42.351Z,101.25
2022-11-30T09:45:42.469Z,101.25
2022-11-30T09:46:42.331Z,101.25
2022-11-30T09:47:42.329Z,101.25
2022-11-30T09:48:42.310Z,101.25
2022-11-30T09:49:42.299Z,101.25
2022-11-30T09:50:42.290Z,101.25
2022-11-30T09:51:42.277Z,101.25
2022-11-30T09:52:42.279Z,101.25
2022-11-30T09:53:42.257Z,106.88
2022-11-30T09:54:42.261Z,106.88
2022-11-30T09:55:42.245Z,106.88
2022-11-30T09:56:42.315Z,106.88
2022-11-30T09:57:42.225Z,106.88
2022-11-30T09:58:42.204Z,106.88
2022-11-30T09:59:42.201Z,112.50
2022-11-30T10:00:42.200Z,112.50
2022-11-30T10:01:45.697Z,112.50
2022-11-30T10:02:42.335Z,112.50
2022-11-30T10:03:42.227Z,112.50
2022-11-30T10:04:42.265Z,112.50
2022-11-30T10:05:42.130Z,112.50
2022-11-30T10:06:42.122Z,112.50
2022-11-30T10:07:42.181Z,112.50
2022-11-30T10:08:46.061Z,112.50
2022-11-30T10:09:49.337Z,112.50
2022-11-30T10:10:43.087Z,112.50
2022-11-30T10:11:42.065Z,118.12
2022-11-30T10:12:42.061Z,118.12
2022-11-30T10:13:42.041Z,118.12
2022-11-30T10:14:42.030Z,123.75
2022-11-30T10:15:42.064Z,123.75
2022-11-30T10:16:42.007Z,129.38
2022-11-30T10:17:42.010Z,129.38
2022-11-30T10:18:41.987Z,129.38
2022-11-30T10:19:42.028Z,129.38
2022-11-30T10:20:41.964Z,135.00
2022-11-30T10:21:41.978Z,135.00
2022-11-30T10:22:41.980Z,135.00
2022-11-30T10:23:41.934Z,135.00
2022-11-30T10:24:41.924Z,135.00
2022-11-30T10:25:41.910Z,135.00
2022-11-30T10:26:41.934Z,135.00
2022-11-30T10:27:41.904Z,135.00
2022-11-30T10:28:47.414Z,135.00
2022-11-30T10:29:42.867Z,135.00
2022-11-30T10:30:41.937Z,135.00
2022-11-30T10:31:41.847Z,135.00
2022-11-30T10:32:42.022Z,135.00
2022-11-30T10:33:41.824Z,135.00
2022-11-30T10:34:41.818Z,135.00
2022-11-30T10:35:41.814Z,135.00
2022-11-30T10:36:41.792Z,135.00
2022-11-30T10:37:41.795Z,135.00
2022-11-30T10:38:41.816Z,135.00
2022-11-30T10:39:41.757Z,135.00
2022-11-30T10:40:41.754Z,135.00
2022-11-30T10:41:41.951Z,129.38
2022-11-30T10:42:41.757Z,135.00
2022-11-30T10:43:41.718Z,135.00
2022-11-30T10:44:41.705Z,129.38
2022-11-30T10:45:41.696Z,135.00
2022-11-30T10:46:41.748Z,135.00
2022-11-30T10:47:41.681Z,129.38
2022-11-30T10:48:41.665Z,129.38
2022-11-30T10:49:41.764Z,129.38
2022-11-30T10:50:41.640Z,129.38
2022-11-30T10:51:41.627Z,129.38
2022-11-30T10:52:41.630Z,123.75
2022-11-30T10:53:41.608Z,123.75
2022-11-30T10:54:41.596Z,123.75
2022-11-30T10:55:41.590Z,129.38
2022-11-30T10:56:41.580Z,129.38
2022-11-30T10:57:41.573Z,129.38
2022-11-30T10:58:41.575Z,129.38
2022-11-30T10:59:41.545Z,129.38
2022-11-30T11:00:41.533Z,129.38
2022-11-30T11:01:41.561Z,129.38
2022-11-30T11:02:41.621Z,129.38
2022-11-30T11:03:41.569Z,129.38
2022-11-30T11:04:41.491Z,129.38
2022-11-30T11:05:41.477Z,135.00
2022-11-30T11:06:41.563Z,135.00
2022-11-30T11:07:41.931Z,135.00
2022-11-30T11:08:41.446Z,135.00
2022-11-30T11:09:41.435Z,135.00
2022-11-30T11:10:41.429Z,135.00
2022-11-30T11:11:41.439Z,135.00
2022-11-30T11:12:41.443Z,135.00
2022-11-30T11:13:41.391Z,135.00
2022-11-30T11:14:41.405Z,140.62
2022-11-30T11:15:41.422Z,140.62
2022-11-30T11:16:41.402Z,146.25
2022-11-30T11:17:41.399Z,146.25
2022-11-30T11:18:41.343Z,151.88
2022-11-30T11:19:41.327Z,151.88
2022-11-30T11:20:41.323Z,151.88
2022-11-30T11:21:41.306Z,151.88
2022-11-30T11:22:41.308Z,146.25
2022-11-30T11:23:41.284Z,146.25
2022-11-30T11:24:41.278Z,140.62
2022-11-30T11:25:41.271Z,140.62
2022-11-30T11:26:41.254Z,140.62
2022-11-30T11:27:44.912Z,140.62
2022-11-30T11:28:41.248Z,135.00
2022-11-30T11:29:41.221Z,135.00
2022-11-30T11:30:41.330Z,135.00
2022-11-30T11:31:41.196Z,135.00
2022-11-30T11:32:41.206Z,135.00
2022-11-30T11:33:41.179Z,129.38
2022-11-30T11:34:41.174Z,129.38
2022-11-30T11:35:41.152Z,129.38
2022-11-30T11:36:41.145Z,129.38
2022-11-30T11:37:41.140Z,129.38
2022-11-30T11:38:41.125Z,129.38
2022-11-30T11:39:41.110Z,123.75
2022-11-30T11:40:41.116Z,123.75
2022-11-30T11:41:41.089Z,123.75
2022-11-30T11:42:41.096Z,123.75
2022-11-30T11:43:41.067Z,123.75
2022-11-30T11:44:41.059Z,123.75
2022-11-30T11:45:41.051Z,118.12
2022-11-30T11:46:41.141Z,118.12
2022-11-30T11:47:41.050Z,118.12
2022-11-30T11:48:41.026Z,112.50
2022-11-30T11:49:41.014Z,112.50
2022-11-30T11:51:09.597Z,112.50
2022-11-30T11:51:41.982Z,112.50
2022-11-30T11:52:40.982Z,112.50
2022-11-30T11:53:46.121Z,112.50
2022-11-30T11:54:41.948Z,112.50
2022-11-30T11:55:40.943Z,112.50
2022-11-30T11:56:40.958Z,112.50
2022-11-30T11:57:40.932Z,112.50
2022-11-30T11:58:40.906Z,118.12
2022-11-30T11:59:40.895Z,118.12
2022-11-30T12:00:40.890Z,118.12
2022-11-30T12:01:41.420Z,112.50
2022-11-30T12:02:40.933Z,112.50
2022-11-30T12:03:40.852Z,112.50
2022-11-30T12:04:40.895Z,112.50
2022-11-30T12:05:40.829Z,112.50
2022-11-30T12:06:40.820Z,112.50
2022-11-30T12:07:40.875Z,112.50
2022-11-30T12:08:40.799Z,112.50
2022-11-30T12:09:40.785Z,106.88
2022-11-30T12:10:51.612Z,106.88
2022-11-30T12:11:41.762Z,106.88
2022-11-30T12:12:46.683Z,101.25
2022-11-30T12:13:41.742Z,101.25
2022-11-30T12:14:40.737Z,101.25
2022-11-30T12:15:40.762Z,101.25
2022-11-30T12:16:40.712Z,101.25
2022-11-30T12:17:40.706Z,101.25
2022-11-30T12:18:40.710Z,101.25
2022-11-30T12:19:40.690Z,101.25
2022-11-30T12:20:40.677Z,101.25
2022-11-30T12:21:40.688Z,101.25
2022-11-30T12:22:40.658Z,101.25
2022-11-30T12:23:40.633Z,101.25
2022-11-30T12:24:40.623Z,101.25
2022-11-30T12:25:40.610Z,101.25
2022-11-30T12:26:40.602Z,101.25
2022-11-30T12:27:40.601Z,101.25
2022-11-30T12:28:40.580Z,101.25
2022-11-30T12:29:40.567Z,101.25
2022-11-30T12:30:40.568Z,101.25
2022-11-30T12:31:40.620Z,101.25
2022-11-30T12:32:40.555Z,101.25
2022-11-30T12:33:40.528Z,101.25
2022-11-30T12:34:40.537Z,101.25
2022-11-30T12:35:40.505Z,101.25
2022-11-30T12:36:40.497Z,106.88
2022-11-30T12:37:45.854Z,106.88
2022-11-30T12:38:41.475Z,101.25
2022-11-30T12:39:40.461Z,101.25
2022-11-30T12:40:40.451Z,101.25
2022-11-30T12:41:40.442Z,101.25
2022-11-30T12:42:40.438Z,101.25
2022-11-30T12:43:40.420Z,95.62
2022-11-30T12:44:42.609Z,95.62
2022-11-30T12:45:40.398Z,95.62
2022-11-30T12:46:40.452Z,95.62
2022-11-30T12:47:40.387Z,95.62
2022-11-30T12:48:40.403Z,95.62
2022-11-30T12:49:40.353Z,95.62
2022-11-30T12:50:40.390Z,95.62
2022-11-30T12:51:40.333Z,95.62
2022-11-30T12:52:40.328Z,101.25
2022-11-30T12:53:40.311Z,101.25
2022-11-30T12:54:40.299Z,101.25
2022-11-30T12:55:40.293Z,101.25
2022-11-30T12:56:45.724Z,101.25
2022-11-30T12:57:41.295Z,101.25
2022-11-30T12:58:40.261Z,95.62
2022-11-30T12:59:40.245Z,95.62
2022-11-30T13:00:40.316Z,95.62
2022-11-30T13:01:40.292Z,95.62